Time;durP1;ratioP1;P1;durP2;ratioP2;P2;SDS_P1;SDS_P2;PMS_P1;PMS_P2;Temp;Humidity;BMP_temperature;BMP_pressure;BME280_temperature;BME280_humidity;BME280_pressure;Samples;Min_cycle;Max_cycle;Signal;HPM_P1;HPM_P2
2022/04/10 00:00:30;;;;;;;;;;;4.60;99.90;;;;;;5089228;28;19967;-78
2022/04/10 00:02:56;;;;;;;;;;;4.60;99.90;;;;;;5089656;28;19994;-77
2022/04/10 00:05:21;;;;;;;;;;;4.50;99.90;;;;;;5089363;28;19927;-77
2022/04/10 00:07:47;;;;;;;;;;;4.40;99.90;;;;;;5088914;28;19927;-77
2022/04/10 00:10:12;;;;;;;;;;;4.30;99.90;;;;;;5089510;28;19920;-78
2022/04/10 00:12:38;;;;;;;;;;;4.30;99.90;;;;;;5089602;28;20290;-77
2022/04/10 00:15:04;;;;;;;;;;;4.20;99.90;;;;;;5089428;28;20002;-77
2022/04/10 00:17:29;;;;;;;;;;;4.20;99.90;;;;;;5088306;28;20344;-77
2022/04/10 00:19:55;;;;;;;;;;;4.20;99.90;;;;;;5088928;28;20476;-77
2022/04/10 00:22:20;;;;;;;;;;;4.20;99.90;;;;;;5089280;28;19973;-78
2022/04/10 00:24:46;;;;;;;;;;;4.20;99.90;;;;;;5087958;28;19959;-77
2022/04/10 00:27:13;;;;;;;;;;;4.10;99.90;;;;;;5089583;28;19965;-77
2022/04/10 00:29:40;;;;;;;;;;;4.20;99.90;;;;;;5100828;28;20029;-77
2022/04/10 00:32:05;;;;;;;;;;;4.20;99.90;;;;;;5103253;28;19924;-77
2022/04/10 00:34:31;;;;;;;;;;;4.20;99.90;;;;;;5093181;28;20279;-77
2022/04/10 00:36:56;;;;;;;;;;;4.10;99.90;;;;;;5093129;28;19931;-77
2022/04/10 00:39:22;;;;;;;;;;;4.20;99.90;;;;;;5093168;28;19923;-77
2022/04/10 00:41:49;;;;;;;;;;;4.20;99.90;;;;;;5091746;28;19969;-77
2022/04/10 00:44:14;;;;;;;;;;;4.20;99.90;;;;;;5097119;28;20289;-77
2022/04/10 00:46:40;;;;;;;;;;;4.20;99.90;;;;;;5113324;28;19927;-77
2022/04/10 00:49:07;;;;;;;;;;;4.20;99.90;;;;;;5113304;28;19927;-77
2022/04/10 00:51:43;;;;;;;;;;;4.20;99.90;;;;;;5113414;28;20380;-77
2022/04/10 00:54:16;;;;;;;;;;;4.20;99.90;;;;;;5112558;28;19920;-77
2022/04/10 00:56:43;;;;;;;;;;;4.20;99.90;;;;;;5113196;28;20400;-78
2022/04/10 00:59:08;;;;;;;;;;;4.20;99.90;;;;;;5112085;28;20331;-77
2022/04/10 01:01:35;;;;;;;;;;;4.20;99.90;;;;;;5105194;28;19920;-78
2022/04/10 01:04:01;;;;;;;;;;;4.20;99.90;;;;;;5090981;28;19931;-78
2022/04/10 01:06:27;;;;;;;;;;;4.20;99.90;;;;;;5074610;28;20396;-77
2022/04/10 01:08:53;;;;;;;;;;;4.20;99.90;;;;;;5091225;28;19924;-78
2022/04/10 01:11:18;;;;;;;;;;;4.20;99.90;;;;;;5092696;28;19923;-78
2022/04/10 01:13:44;;;;;;;;;;;4.20;99.90;;;;;;5092441;28;19980;-77
2022/04/10 01:16:10;;;;;;;;;;;4.20;99.90;;;;;;5090871;28;19931;-77
2022/04/10 01:18:35;;;;;;;;;;;4.10;99.90;;;;;;5092396;28;20103;-78
2022/04/10 01:21:01;;;;;;;;;;;4.10;99.90;;;;;;5090919;28;20381;-77
2022/04/10 01:23:27;;;;;;;;;;;4.10;99.90;;;;;;5092239;28;19927;-78
2022/04/10 01:25:52;;;;;;;;;;;4.10;99.90;;;;;;5090702;28;19920;-78
2022/04/10 01:28:18;;;;;;;;;;;4.10;99.90;;;;;;5092464;28;19924;-78
2022/04/10 01:30:43;;;;;;;;;;;4.10;99.90;;;;;;5091264;28;19920;-78
2022/04/10 01:33:09;;;;;;;;;;;4.10;99.90;;;;;;5090395;28;20565;-78
2022/04/10 01:35:36;;;;;;;;;;;4.20;99.90;;;;;;5097743;28;19967;-78
2022/04/10 01:38:02;;;;;;;;;;;4.20;99.90;;;;;;5111460;28;20460;-77
2022/04/10 01:40:27;;;;;;;;;;;4.20;99.90;;;;;;5112436;28;19970;-78
2022/04/10 01:42:53;;;;;;;;;;;4.20;99.90;;;;;;5110615;28;19919;-77
2022/04/10 01:45:18;;;;;;;;;;;4.20;99.90;;;;;;5112075;28;20031;-78
2022/04/10 01:47:44;;;;;;;;;;;4.10;99.90;;;;;;5112322;28;19920;-78
2022/04/10 01:50:10;;;;;;;;;;;4.20;99.90;;;;;;5111010;28;20433;-78
2022/04/10 01:52:36;;;;;;;;;;;4.20;99.90;;;;;;5111779;27;19970;-77
2022/04/10 01:55:01;;;;;;;;;;;4.10;99.90;;;;;;5110887;28;19978;-78
2022/04/10 01:57:27;;;;;;;;;;;4.10;99.90;;;;;;5111965;28;19961;-78
2022/04/10 01:59:52;;;;;;;;;;;4.10;99.90;;;;;;5111914;28;20302;-77
2022/04/10 02:02:18;;;;;;;;;;;4.00;99.90;;;;;;5112092;28;20465;-78
2022/04/10 02:04:43;;;;;;;;;;;4.10;99.90;;;;;;5110459;28;19946;-78
2022/04/10 02:07:09;;;;;;;;;;;4.00;99.90;;;;;;5110658;28;20294;-78
2022/04/10 02:09:34;;;;;;;;;;;4.10;99.90;;;;;;5111796;28;19919;-78
2022/04/10 02:12:00;;;;;;;;;;;4.00;99.90;;;;;;5111874;28;19927;-78
2022/04/10 02:14:25;;;;;;;;;;;4.10;99.90;;;;;;5111700;28;19942;-77
2022/04/10 02:16:51;;;;;;;;;;;4.10;99.90;;;;;;5111097;28;20027;-78
2022/04/10 02:19:16;;;;;;;;;;;4.10;99.90;;;;;;5111669;28;19926;-78
2022/04/10 02:21:42;;;;;;;;;;;4.00;99.90;;;;;;5111659;28;19962;-78
2022/04/10 02:24:08;;;;;;;;;;;4.00;99.90;;;;;;5111048;28;19976;-78
2022/04/10 02:26:33;;;;;;;;;;;4.00;99.90;;;;;;5111559;28;19942;-77
2022/04/10 02:29:00;;;;;;;;;;;3.90;99.90;;;;;;5110521;28;20369;-78
2022/04/10 02:31:25;;;;;;;;;;;3.90;99.90;;;;;;5111438;28;19927;-78
2022/04/10 02:33:51;;;;;;;;;;;4.00;99.90;;;;;;5110376;28;19923;-78
2022/04/10 02:36:19;;;;;;;;;;;4.00;99.90;;;;;;5099631;28;20538;-78
2022/04/10 02:38:44;;;;;;;;;;;4.00;99.90;;;;;;5072068;28;19919;-77
2022/04/10 02:41:10;;;;;;;;;;;4.10;99.90;;;;;;5089143;28;19920;-77
2022/04/10 02:43:37;;;;;;;;;;;4.00;99.90;;;;;;5088983;28;20011;-77
2022/04/10 02:46:03;;;;;;;;;;;4.00;99.90;;;;;;5090250;28;19931;-78
2022/04/10 02:48:28;;;;;;;;;;;3.90;99.90;;;;;;5090683;28;19920;-78
2022/04/10 02:50:54;;;;;;;;;;;3.80;99.90;;;;;;5088319;28;19973;-77
2022/04/10 02:53:19;;;;;;;;;;;3.80;99.90;;;;;;5090337;28;19924;-77
2022/04/10 02:55:45;;;;;;;;;;;3.70;99.90;;;;;;5090544;28;19920;-77
2022/04/10 02:58:10;;;;;;;;;;;3.70;99.90;;;;;;5089168;28;20397;-77
2022/04/10 03:00:36;;;;;;;;;;;3.60;99.90;;;;;;5090400;28;19946;-78
2022/04/10 03:03:02;;;;;;;;;;;3.60;99.90;;;;;;5090168;28;19923;-78
2022/04/10 03:05:27;;;;;;;;;;;3.60;99.90;;;;;;5090249;28;19959;-77
2022/04/10 03:07:53;;;;;;;;;;;3.60;99.90;;;;;;5090137;28;19951;-77
2022/04/10 03:10:18;;;;;;;;;;;3.70;99.90;;;;;;5090264;28;20381;-78
2022/04/10 03:12:44;;;;;;;;;;;3.70;99.90;;;;;;5089152;28;20764;-78
2022/04/10 03:15:09;;;;;;;;;;;3.70;99.90;;;;;;5088819;28;19963;-79
2022/04/10 03:17:35;;;;;;;;;;;3.70;99.90;;;;;;5089717;28;20409;-78
2022/04/10 03:20:00;;;;;;;;;;;3.60;99.90;;;;;;5088558;28;20003;-78
2022/04/10 03:22:26;;;;;;;;;;;3.60;99.90;;;;;;5088769;28;19974;-78
2022/04/10 03:24:51;;;;;;;;;;;3.60;99.90;;;;;;5089600;28;20018;-78
2022/04/10 03:27:17;;;;;;;;;;;3.60;99.90;;;;;;5088809;28;19927;-78
2022/04/10 03:29:42;;;;;;;;;;;3.60;99.90;;;;;;5090130;28;20382;-78
2022/04/10 03:32:08;;;;;;;;;;;3.50;99.90;;;;;;5088718;28;19924;-78
2022/04/10 03:34:34;;;;;;;;;;;3.50;99.90;;;;;;5088818;28;19920;-78
2022/04/10 03:36:59;;;;;;;;;;;3.50;99.90;;;;;;5106306;28;19927;-78
2022/04/10 03:39:25;;;;;;;;;;;3.60;99.90;;;;;;5108533;28;19919;-78
2022/04/10 03:41:50;;;;;;;;;;;3.50;99.90;;;;;;5109862;28;19920;-78
2022/04/10 03:44:16;;;;;;;;;;;3.50;99.90;;;;;;5108877;28;19920;-78
2022/04/10 03:46:41;;;;;;;;;;;3.50;99.90;;;;;;5092080;28;19919;-78
2022/04/10 03:49:07;;;;;;;;;;;3.50;99.90;;;;;;5108395;28;20042;-78
2022/04/10 03:51:32;;;;;;;;;;;3.50;99.90;;;;;;5108824;28;19919;-76
2022/04/10 03:53:58;;;;;;;;;;;3.60;99.90;;;;;;5108612;28;19927;-76
2022/04/10 03:56:23;;;;;;;;;;;3.50;99.90;;;;;;5108622;28;19927;-76
2022/04/10 03:58:49;;;;;;;;;;;3.50;99.90;;;;;;5108561;28;19963;-76
2022/04/10 04:01:14;;;;;;;;;;;3.60;99.90;;;;;;5109105;28;20291;-76
2022/04/10 04:03:40;;;;;;;;;;;3.50;99.90;;;;;;5112921;28;19972;-76
2022/04/10 04:06:06;;;;;;;;;;;3.50;99.90;;;;;;5112720;28;19984;-76
2022/04/10 04:08:32;;;;;;;;;;;3.50;99.90;;;;;;5113504;28;19919;-76
2022/04/10 04:10:58;;;;;;;;;;;3.50;99.90;;;;;;5114043;28;19919;-76
2022/04/10 04:13:24;;;;;;;;;;;3.50;99.90;;;;;;5112537;28;20404;-76
2022/04/10 04:15:50;;;;;;;;;;;3.50;99.90;;;;;;5112402;28;20378;-76
2022/04/10 04:18:16;;;;;;;;;;;3.50;99.90;;;;;;5113133;28;19934;-76
2022/04/10 04:20:41;;;;;;;;;;;3.50;99.90;;;;;;5113733;28;19934;-77
2022/04/10 04:23:07;;;;;;;;;;;3.50;99.90;;;;;;5112485;28;19924;-77
2022/04/10 04:25:32;;;;;;;;;;;3.50;99.90;;;;;;5112415;28;20293;-77
2022/04/10 04:27:58;;;;;;;;;;;3.50;99.90;;;;;;5112372;28;19972;-77
2022/04/10 04:30:24;;;;;;;;;;;3.30;99.90;;;;;;5112681;28;19942;-77
2022/04/10 04:32:50;;;;;;;;;;;3.20;99.90;;;;;;5113978;28;20759;-77
2022/04/10 04:35:16;;;;;;;;;;;3.20;99.90;;;;;;5109223;28;19920;-77
2022/04/10 04:37:42;;;;;;;;;;;3.10;99.90;;;;;;5091733;28;19927;-77
2022/04/10 04:40:08;;;;;;;;;;;3.10;99.90;;;;;;5091759;28;19927;-77
2022/04/10 04:42:33;;;;;;;;;;;3.00;99.90;;;;;;5092876;28;19928;-76
2022/04/10 04:44:59;;;;;;;;;;;3.00;99.90;;;;;;5093120;28;20622;-77
2022/04/10 04:47:24;;;;;;;;;;;3.00;99.90;;;;;;5092687;28;19920;-77
2022/04/10 04:49:50;;;;;;;;;;;3.00;99.90;;;;;;5091910;28;19924;-77
2022/04/10 04:52:16;;;;;;;;;;;2.90;99.90;;;;;;5091360;28;19985;-77
2022/04/10 04:54:42;;;;;;;;;;;2.90;99.90;;;;;;5092997;28;19966;-77
2022/04/10 04:57:08;;;;;;;;;;;2.90;99.90;;;;;;5091574;28;19960;-77
2022/04/10 04:59:33;;;;;;;;;;;2.90;99.90;;;;;;5092849;28;19966;-77
2022/04/10 05:01:59;;;;;;;;;;;2.90;99.90;;;;;;5092593;28;20314;-77
2022/04/10 05:04:24;;;;;;;;;;;2.90;99.90;;;;;;5092424;28;19920;-77
2022/04/10 05:06:50;;;;;;;;;;;2.90;99.90;;;;;;5093049;28;20305;-77
2022/04/10 05:09:15;;;;;;;;;;;2.90;99.90;;;;;;5074662;28;19920;-77
2022/04/10 05:11:41;;;;;;;;;;;2.90;99.90;;;;;;5090911;28;19923;-77
2022/04/10 05:14:06;;;;;;;;;;;3.00;99.90;;;;;;5090931;28;20305;-77
2022/04/10 05:16:32;;;;;;;;;;;3.00;99.90;;;;;;5091511;28;19927;-77
2022/04/10 05:18:57;;;;;;;;;;;3.00;99.90;;;;;;5090455;28;19920;-77
2022/04/10 05:21:23;;;;;;;;;;;3.00;99.90;;;;;;5091087;28;19924;-77
2022/04/10 05:23:49;;;;;;;;;;;3.00;99.90;;;;;;5092344;28;19924;-77
2022/04/10 05:26:15;;;;;;;;;;;3.00;99.90;;;;;;5091055;28;20006;-77
2022/04/10 05:28:40;;;;;;;;;;;3.00;99.90;;;;;;5091263;28;20357;-77
2022/04/10 05:31:06;;;;;;;;;;;3.10;99.90;;;;;;5073895;28;19920;-77
2022/04/10 05:33:35;;;;;;;;;;;3.10;99.90;;;;;;5091924;28;19920;-77
2022/04/10 05:36:00;;;;;;;;;;;3.20;99.90;;;;;;5101230;28;19926;-77
2022/04/10 05:38:26;;;;;;;;;;;3.20;99.90;;;;;;5112743;28;19920;-77
2022/04/10 05:40:53;;;;;;;;;;;3.20;99.90;;;;;;5111197;28;20302;-77
2022/04/10 05:43:22;;;;;;;;;;;3.20;99.90;;;;;;5112461;28;19924;-77
2022/04/10 05:45:48;;;;;;;;;;;3.30;99.90;;;;;;5112110;28;19958;-77
2022/04/10 05:48:14;;;;;;;;;;;3.30;99.90;;;;;;5112037;28;20075;-77
2022/04/10 05:50:39;;;;;;;;;;;3.40;99.90;;;;;;5112387;28;19920;-77
2022/04/10 05:53:05;;;;;;;;;;;3.50;99.90;;;;;;5111545;28;19924;-77
2022/04/10 05:55:30;;;;;;;;;;;3.60;99.90;;;;;;5112484;28;19919;-77
2022/04/10 05:57:56;;;;;;;;;;;3.70;99.90;;;;;;5111633;28;19924;-76
2022/04/10 06:00:23;;;;;;;;;;;3.70;99.90;;;;;;5112105;28;19920;-77
2022/04/10 06:02:49;;;;;;;;;;;3.80;99.90;;;;;;5112033;27;19924;-77
2022/04/10 06:05:15;;;;;;;;;;;3.90;99.90;;;;;;5111530;28;19919;-77
2022/04/10 06:07:40;;;;;;;;;;;3.90;99.90;;;;;;5111792;28;19920;-77
2022/04/10 06:10:06;;;;;;;;;;;4.00;99.90;;;;;;5111455;28;20011;-77
2022/04/10 06:12:32;;;;;;;;;;;4.00;99.90;;;;;;5111933;28;19919;-76
2022/04/10 06:14:57;;;;;;;;;;;4.10;99.90;;;;;;5110251;28;20292;-77
2022/04/10 06:17:23;;;;;;;;;;;4.10;99.90;;;;;;5109676;28;19927;-78
2022/04/10 06:19:49;;;;;;;;;;;4.10;99.90;;;;;;5110063;28;20266;-78
2022/04/10 06:22:15;;;;;;;;;;;4.20;99.90;;;;;;5109980;28;19934;-78
2022/04/10 06:24:41;;;;;;;;;;;4.20;99.90;;;;;;5109532;28;19920;-78
2022/04/10 06:27:07;;;;;;;;;;;4.40;99.90;;;;;;5110629;28;19942;-78
2022/04/10 06:29:32;;;;;;;;;;;4.50;99.90;;;;;;5110616;28;20378;-78
2022/04/10 06:31:58;;;;;;;;;;;4.70;99.90;;;;;;5109926;28;19919;-78
2022/04/10 06:34:23;;;;;;;;;;;4.70;99.90;;;;;;5111286;28;19923;-78
2022/04/10 06:36:49;;;;;;;;;;;4.80;99.90;;;;;;5094624;28;19927;-78
2022/04/10 06:39:15;;;;;;;;;;;4.80;99.90;;;;;;5089507;28;19943;-77
2022/04/10 06:41:41;;;;;;;;;;;4.80;99.90;;;;;;5089189;28;19924;-78
2022/04/10 06:44:07;;;;;;;;;;;4.70;99.90;;;;;;5090368;28;19924;-77
2022/04/10 06:46:33;;;;;;;;;;;4.70;99.90;;;;;;5089297;28;19973;-78
2022/04/10 06:48:58;;;;;;;;;;;4.60;99.90;;;;;;5089392;28;20439;-78
2022/04/10 06:51:24;;;;;;;;;;;4.50;99.90;;;;;;5089710;28;20443;-79
2022/04/10 06:53:49;;;;;;;;;;;4.50;99.90;;;;;;5089688;28;19977;-79
2022/04/10 06:56:15;;;;;;;;;;;4.50;99.90;;;;;;5088242;28;19924;-78
2022/04/10 06:58:41;;;;;;;;;;;4.60;99.90;;;;;;5071875;28;19924;-77
2022/04/10 07:01:06;;;;;;;;;;;4.60;99.90;;;;;;5090063;28;19919;-77
2022/04/10 07:03:32;;;;;;;;;;;4.70;99.90;;;;;;5090198;28;19926;-77
2022/04/10 07:05:58;;;;;;;;;;;4.70;99.90;;;;;;5090061;28;19920;-77
2022/04/10 07:08:23;;;;;;;;;;;4.80;99.90;;;;;;5088625;28;20224;-78
2022/04/10 07:10:49;;;;;;;;;;;4.90;99.90;;;;;;5089021;28;20362;-76
2022/04/10 07:13:18;;;;;;;;;;;5.00;99.90;;;;;;5088564;28;20405;-76
2022/04/10 07:15:53;;;;;;;;;;;5.10;99.90;;;;;;5089639;28;19920;-76
2022/04/10 07:18:19;;;;;;;;;;;5.20;99.90;;;;;;5089925;28;19926;-76
2022/04/10 07:20:44;;;;;;;;;;;5.40;99.90;;;;;;5088569;28;19924;-76
2022/04/10 07:25:54;;;;;;;;;;;5.70;99.90;;;;;;5088945;28;19920;-76
2022/04/10 07:28:20;;;;;;;;;;;5.90;99.90;;;;;;5089854;28;19926;-77
2022/04/10 07:30:46;;;;;;;;;;;6.00;99.90;;;;;;5089327;28;20344;-77
2022/04/10 07:33:12;;;;;;;;;;;6.10;99.90;;;;;;5089606;28;19924;-76
2022/04/10 07:35:42;;;;;;;;;;;6.10;99.90;;;;;;5093620;28;19920;-77
2022/04/10 07:38:10;;;;;;;;;;;6.10;99.90;;;;;;5109596;28;19930;-76
2022/04/10 07:40:36;;;;;;;;;;;6.10;99.90;;;;;;5110061;28;19927;-76
2022/04/10 07:43:02;;;;;;;;;;;6.10;99.90;;;;;;5109692;28;20309;-77
2022/04/10 07:48:12;;;;;;;;;;;5.90;99.90;;;;;;5107999;28;20425;-77
2022/04/10 07:50:38;;;;;;;;;;;5.90;99.90;;;;;;5108581;28;19976;-77
2022/04/10 07:53:03;;;;;;;;;;;6.00;99.90;;;;;;5109671;28;19928;-77
2022/04/10 07:55:29;;;;;;;;;;;6.10;99.90;;;;;;5109664;28;19920;-77
2022/04/10 07:57:55;;;;;;;;;;;6.20;99.90;;;;;;5109121;28;20294;-77
2022/04/10 08:00:21;;;;;;;;;;;6.30;99.90;;;;;;5108508;28;19920;-77
2022/04/10 08:02:47;;;;;;;;;;;6.40;99.90;;;;;;5107600;28;20002;-77
2022/04/10 08:05:13;;;;;;;;;;;6.40;99.90;;;;;;5097291;28;19924;-76
2022/04/10 08:07:39;;;;;;;;;;;6.50;99.90;;;;;;5079639;28;19924;-78
2022/04/10 08:10:05;;;;;;;;;;;6.70;99.90;;;;;;5086661;28;20073;-78
2022/04/10 08:12:31;;;;;;;;;;;6.80;99.90;;;;;;5088234;28;20015;-78
2022/04/10 08:14:56;;;;;;;;;;;6.90;99.90;;;;;;5087951;28;19927;-79
2022/04/10 08:17:22;;;;;;;;;;;7.10;99.90;;;;;;5086589;28;20397;-78
2022/04/10 08:19:47;;;;;;;;;;;7.00;99.90;;;;;;5085953;28;19924;-76
2022/04/10 08:22:13;;;;;;;;;;;6.80;99.90;;;;;;5086677;28;20012;-76
2022/04/10 08:24:38;;;;;;;;;;;6.70;99.90;;;;;;5088333;28;20573;-77
2022/04/10 08:27:04;;;;;;;;;;;6.60;99.90;;;;;;5086313;28;20417;-77
2022/04/10 08:29:29;;;;;;;;;;;6.60;99.90;;;;;;5069257;28;20024;-77
2022/04/10 08:31:55;;;;;;;;;;;6.60;99.90;;;;;;5087036;28;19978;-77
2022/04/10 08:34:20;;;;;;;;;;;6.60;99.90;;;;;;5086523;28;19920;-78
2022/04/10 08:36:46;;;;;;;;;;;6.70;99.90;;;;;;5087626;28;19920;-77
2022/04/10 08:39:11;;;;;;;;;;;6.70;99.90;;;;;;5087061;28;20463;-77
2022/04/10 08:41:38;;;;;;;;;;;6.80;99.90;;;;;;5086159;28;19932;-77
2022/04/10 08:44:04;;;;;;;;;;;6.80;99.90;;;;;;5087639;28;20531;-77
2022/04/10 08:46:30;;;;;;;;;;;6.90;99.90;;;;;;5085814;28;19930;-77
2022/04/10 08:48:57;;;;;;;;;;;7.00;99.90;;;;;;5091627;28;20370;-77
2022/04/10 08:51:24;;;;;;;;;;;7.20;99.90;;;;;;5090976;28;19924;-77
2022/04/10 08:53:50;;;;;;;;;;;7.40;99.90;;;;;;5091707;28;19927;-77
2022/04/10 08:56:15;;;;;;;;;;;7.50;99.90;;;;;;5091328;28;20015;-75
2022/04/10 08:58:41;;;;;;;;;;;7.60;99.90;;;;;;5086531;28;20014;-76
2022/04/10 09:01:09;;;;;;;;;;;7.80;99.90;;;;;;5073108;28;20021;-76
2022/04/10 09:03:35;;;;;;;;;;;7.90;99.90;;;;;;5075720;28;20421;-77
2022/04/10 09:06:04;;;;;;;;;;;7.90;99.90;;;;;;5091486;28;19919;-77
2022/04/10 09:08:30;;;;;;;;;;;7.90;99.90;;;;;;5070956;28;19974;-77
2022/04/10 09:11:14;;;;;;;;;;;7.90;99.90;;;;;;5089134;28;19927;-77
2022/04/10 09:13:41;;;;;;;;;;;7.90;99.90;;;;;;5092278;28;20019;-77
2022/04/10 09:16:10;;;;;;;;;;;7.90;99.90;;;;;;5091794;28;19965;-77
2022/04/10 09:18:47;;;;;;;;;;;8.00;99.90;;;;;;5092153;28;19924;-77
2022/04/10 09:21:13;;;;;;;;;;;8.00;99.90;;;;;;5090476;28;19920;-77
2022/04/10 09:23:39;;;;;;;;;;;8.30;99.90;;;;;;5092144;28;19920;-77
2022/04/10 09:26:05;;;;;;;;;;;9.00;99.90;;;;;;5091691;28;20531;-77
2022/04/10 09:28:44;;;;;;;;;;;9.50;99.90;;;;;;5074360;28;19919;-77
2022/04/10 09:31:29;;;;;;;;;;;9.80;99.90;;;;;;5091881;28;19920;-77
2022/04/10 09:33:55;;;;;;;;;;;10.00;99.90;;;;;;5090571;28;19927;-78
2022/04/10 09:36:34;;;;;;;;;;;10.20;99.90;;;;;;5092772;28;19951;-77
2022/04/10 09:39:00;;;;;;;;;;;10.40;99.90;;;;;;5089472;28;19972;-77
2022/04/10 09:41:25;;;;;;;;;;;10.70;98.80;;;;;;5091931;28;19927;-77
2022/04/10 09:43:51;;;;;;;;;;;10.90;98.00;;;;;;5082211;28;19920;-77
2022/04/10 09:46:17;;;;;;;;;;;10.90;99.10;;;;;;5066468;28;20293;-77
2022/04/10 09:48:42;;;;;;;;;;;11.00;98.80;;;;;;5090917;28;19934;-77
2022/04/10 09:51:10;;;;;;;;;;;10.70;98.30;;;;;;5089281;28;19924;-77
2022/04/10 09:53:35;;;;;;;;;;;10.70;99.10;;;;;;5087996;28;19920;-77
2022/04/10 09:56:02;;;;;;;;;;;10.80;98.80;;;;;;5090954;28;19924;-77
2022/04/10 09:58:28;;;;;;;;;;;11.00;99.90;;;;;;5085200;28;20008;-78
2022/04/10 10:00:54;;;;;;;;;;;11.40;99.90;;;;;;5088606;28;20341;-77
2022/04/10 10:03:21;;;;;;;;;;;11.70;99.60;;;;;;5072108;28;19947;-78
2022/04/10 10:05:48;;;;;;;;;;;12.00;98.70;;;;;;5089647;28;20382;-77
2022/04/10 10:08:16;;;;;;;;;;;12.20;97.60;;;;;;5071734;28;20010;-78
2022/04/10 10:10:42;;;;;;;;;;;12.30;95.80;;;;;;5088173;28;19934;-78
2022/04/10 10:13:07;;;;;;;;;;;12.30;95.60;;;;;;5087098;28;19920;-77
2022/04/10 10:15:36;;;;;;;;;;;12.40;94.80;;;;;;5070944;28;19976;-77
2022/04/10 10:18:06;;;;;;;;;;;12.50;94.90;;;;;;5070819;28;20382;-77
2022/04/10 10:20:31;;;;;;;;;;;12.60;93.80;;;;;;5071198;28;19939;-77
2022/04/10 10:23:00;;;;;;;;;;;12.80;92.80;;;;;;5070805;28;19921;-77
2022/04/10 10:26:04;;;;;;;;;;;13.00;93.60;;;;;;5069171;28;19927;-77
2022/04/10 10:28:48;;;;;;;;;;;12.90;91.90;;;;;;4992189;28;19922;-77
2022/04/10 10:31:32;;;;;;;;;;;13.00;93.80;;;;;;4975854;28;19925;-77
2022/04/10 10:34:03;;;;;;;;;;;13.10;90.60;;;;;;5029826;28;19964;-77
2022/04/10 10:36:29;;;;;;;;;;;13.20;90.30;;;;;;5095411;28;19920;-77
2022/04/10 10:38:55;;;;;;;;;;;13.20;87.80;;;;;;5110226;28;20339;-77
2022/04/10 10:41:23;;;;;;;;;;;13.20;91.40;;;;;;5111369;28;19919;-77
2022/04/10 10:43:49;;;;;;;;;;;13.40;91.80;;;;;;5109144;28;19927;-77
2022/04/10 10:46:22;;;;;;;;;;;13.70;92.80;;;;;;5111133;28;20390;-77
2022/04/10 10:48:50;;;;;;;;;;;13.80;91.20;;;;;;5092540;28;19971;-77
2022/04/10 10:51:15;;;;;;;;;;;13.70;90.20;;;;;;5109825;28;20423;-77
2022/04/10 10:53:45;;;;;;;;;;;13.70;91.60;;;;;;5109448;28;19966;-77
2022/04/10 10:56:16;;;;;;;;;;;13.40;90.40;;;;;;5110608;28;19926;-77
2022/04/10 10:58:42;;;;;;;;;;;13.20;91.20;;;;;;5110493;28;20388;-77
2022/04/10 11:01:08;;;;;;;;;;;13.30;93.00;;;;;;5110755;28;19919;-77
2022/04/10 11:03:52;;;;;;;;;;;13.20;91.90;;;;;;5108894;28;20640;-77
2022/04/10 11:06:20;;;;;;;;;;;12.90;90.50;;;;;;5108382;28;19945;-77
2022/04/10 11:08:46;;;;;;;;;;;12.60;89.60;;;;;;5108240;28;20334;-77
2022/04/10 11:11:18;;;;;;;;;;;12.40;91.20;;;;;;5109484;28;20480;-77
2022/04/10 11:13:44;;;;;;;;;;;12.60;92.10;;;;;;5109971;28;20015;-77
2022/04/10 11:16:10;;;;;;;;;;;13.10;92.00;;;;;;5110344;28;20018;-77
2022/04/10 11:18:40;;;;;;;;;;;13.20;90.00;;;;;;5109090;28;20006;-77
2022/04/10 11:21:14;;;;;;;;;;;12.60;88.10;;;;;;5109256;28;19920;-77
2022/04/10 11:23:41;;;;;;;;;;;12.70;90.80;;;;;;5109938;28;19954;-77
2022/04/10 11:26:14;;;;;;;;;;;13.00;90.30;;;;;;5110746;28;19930;-77
2022/04/10 11:28:56;;;;;;;;;;;13.20;90.70;;;;;;5108878;28;20002;-77
2022/04/10 11:31:27;;;;;;;;;;;13.40;90.40;;;;;;5109982;28;19920;-77
2022/04/10 11:33:55;;;;;;;;;;;13.80;91.10;;;;;;5109882;28;19928;-77
2022/04/10 11:36:20;;;;;;;;;;;14.10;90.80;;;;;;5098510;27;19924;-77
2022/04/10 11:39:04;;;;;;;;;;;14.40;88.60;;;;;;5088537;28;20679;-77
2022/04/10 11:41:30;;;;;;;;;;;14.50;84.10;;;;;;5089684;28;20306;-77
2022/04/10 11:43:56;;;;;;;;;;;14.80;83.90;;;;;;5088433;28;20002;-77
2022/04/10 11:46:22;;;;;;;;;;;15.00;82.80;;;;;;5089074;28;19920;-77
2022/04/10 11:48:48;;;;;;;;;;;15.30;82.10;;;;;;5088791;28;19920;-77
2022/04/10 11:51:14;;;;;;;;;;;15.40;80.80;;;;;;5089546;28;19931;-77
2022/04/10 11:53:39;;;;;;;;;;;15.50;78.20;;;;;;5089530;28;19920;-77
2022/04/10 11:56:05;;;;;;;;;;;15.50;79.00;;;;;;5089225;28;19932;-77
2022/04/10 11:58:34;;;;;;;;;;;15.00;78.70;;;;;;5089399;28;19926;-77
2022/04/10 12:01:01;;;;;;;;;;;14.80;78.40;;;;;;5088340;28;19920;-77
2022/04/10 12:03:29;;;;;;;;;;;14.50;76.50;;;;;;5089457;28;19924;-77
2022/04/10 12:05:55;;;;;;;;;;;14.70;76.00;;;;;;5089096;28;19959;-77
2022/04/10 12:08:21;;;;;;;;;;;14.70;76.50;;;;;;5089713;28;20007;-77
2022/04/10 12:10:56;;;;;;;;;;;14.50;75.90;;;;;;5088868;28;20541;-77
2022/04/10 12:13:29;;;;;;;;;;;14.60;77.70;;;;;;5088061;28;19966;-77
2022/04/10 12:16:01;;;;;;;;;;;14.50;78.70;;;;;;5089245;28;19930;-77
2022/04/10 12:18:27;;;;;;;;;;;14.00;78.50;;;;;;5056272;28;19977;-76
2022/04/10 12:21:01;;;;;;;;;;;14.00;81.50;;;;;;5081242;28;19920;-78
2022/04/10 12:23:26;;;;;;;;;;;14.30;79.10;;;;;;5084240;28;19927;-77
2022/04/10 12:25:54;;;;;;;;;;;14.30;77.40;;;;;;5055441;28;19920;-77
2022/04/10 12:28:20;;;;;;;;;;;13.90;78.40;;;;;;5080790;28;19920;-77
2022/04/10 12:30:46;;;;;;;;;;;13.80;81.30;;;;;;5092381;28;19920;-77
2022/04/10 12:33:12;;;;;;;;;;;14.00;86.50;;;;;;5093531;28;20305;-77
2022/04/10 12:35:38;;;;;;;;;;;14.10;84.30;;;;;;5093489;28;20324;-77
2022/04/10 12:38:04;;;;;;;;;;;14.10;83.00;;;;;;5092238;28;19931;-77
2022/04/10 12:40:30;;;;;;;;;;;14.20;82.30;;;;;;5092524;28;19927;-76
2022/04/10 12:43:00;;;;;;;;;;;13.90;83.10;;;;;;5091798;28;19919;-76
2022/04/10 12:45:27;;;;;;;;;;;13.70;81.40;;;;;;5092184;28;20297;-76
2022/04/10 12:47:53;;;;;;;;;;;13.10;83.40;;;;;;5093209;28;20010;-76
2022/04/10 12:50:19;;;;;;;;;;;12.80;87.40;;;;;;5092143;28;20007;-76
2022/04/10 12:52:45;;;;;;;;;;;12.90;86.80;;;;;;5089548;28;19920;-76
2022/04/10 12:55:16;;;;;;;;;;;12.70;87.60;;;;;;5092895;28;20660;-76
2022/04/10 12:57:50;;;;;;;;;;;12.60;88.80;;;;;;5090974;28;20331;-76
2022/04/10 13:00:45;;;;;;;;;;;12.60;89.20;;;;;;5092546;28;19963;-76
2022/04/10 13:03:24;;;;;;;;;;;12.60;91.10;;;;;;5057169;28;19962;-76
2022/04/10 13:05:59;;;;;;;;;;;12.80;91.50;;;;;;5071553;28;19942;-76
2022/04/10 13:08:26;;;;;;;;;;;13.50;90.50;;;;;;5071141;28;19927;-78
2022/04/10 13:10:52;;;;;;;;;;;14.30;90.60;;;;;;5077072;28;19927;-76
2022/04/10 13:13:17;;;;;;;;;;;14.90;82.60;;;;;;5077536;28;19920;-76
2022/04/10 13:15:43;;;;;;;;;;;14.40;76.90;;;;;;5072056;28;19931;-77
2022/04/10 13:18:09;;;;;;;;;;;14.50;78.10;;;;;;5083019;28;19977;-77
2022/04/10 13:20:39;;;;;;;;;;;15.00;79.80;;;;;;5091058;28;19928;-76
2022/04/10 13:23:05;;;;;;;;;;;15.70;75.70;;;;;;5090313;28;19930;-76
2022/04/10 13:25:36;;;;;;;;;;;16.00;70.20;;;;;;5091370;28;19920;-76
2022/04/10 13:28:02;;;;;;;;;;;16.40;69.50;;;;;;5092398;28;19920;-76
2022/04/10 13:30:29;;;;;;;;;;;16.80;67.20;;;;;;5090722;28;19924;-76
2022/04/10 13:32:55;;;;;;;;;;;16.70;62.30;;;;;;5089475;28;20271;-77
2022/04/10 13:35:21;;;;;;;;;;;16.80;63.80;;;;;;5090008;28;19926;-77
2022/04/10 13:37:46;;;;;;;;;;;17.00;64.10;;;;;;5082814;28;20007;-76
2022/04/10 13:40:13;;;;;;;;;;;17.00;61.30;;;;;;5079671;28;19923;-76
2022/04/10 13:42:38;;;;;;;;;;;17.10;61.20;;;;;;5091811;28;19920;-76
2022/04/10 13:45:04;;;;;;;;;;;17.10;61.00;;;;;;5073357;28;19924;-76
2022/04/10 13:47:30;;;;;;;;;;;17.40;62.70;;;;;;5089805;28;19920;-76
2022/04/10 13:49:55;;;;;;;;;;;17.40;60.90;;;;;;5090729;28;19927;-77
2022/04/10 13:52:21;;;;;;;;;;;17.50;61.00;;;;;;5091112;28;19949;-76
2022/04/10 13:54:46;;;;;;;;;;;17.20;58.20;;;;;;5091243;28;19955;-76
2022/04/10 13:57:12;;;;;;;;;;;17.40;59.90;;;;;;5091610;28;20393;-76
2022/04/10 13:59:37;;;;;;;;;;;17.70;59.60;;;;;;5087307;28;19955;-76
2022/04/10 14:02:03;;;;;;;;;;;18.00;58.80;;;;;;5085253;28;19920;-76
2022/04/10 14:04:29;;;;;;;;;;;18.10;57.00;;;;;;5072911;28;19927;-74
2022/04/10 14:06:55;;;;;;;;;;;18.30;57.40;;;;;;5074450;28;19966;-74
2022/04/10 14:09:21;;;;;;;;;;;18.60;58.80;;;;;;5089767;28;20545;-75
2022/04/10 14:11:47;;;;;;;;;;;18.80;56.50;;;;;;5091035;28;19920;-75
2022/04/10 14:14:14;;;;;;;;;;;18.70;54.60;;;;;;5075097;28;20072;-74
2022/04/10 14:16:40;;;;;;;;;;;18.30;53.40;;;;;;5070823;28;19920;-75
2022/04/10 14:19:05;;;;;;;;;;;18.20;55.20;;;;;;5072923;28;20006;-75
2022/04/10 14:21:31;;;;;;;;;;;18.30;55.00;;;;;;5090774;28;20160;-74
2022/04/10 14:23:58;;;;;;;;;;;18.30;55.40;;;;;;5088277;28;19990;-75
2022/04/10 14:26:23;;;;;;;;;;;18.40;56.10;;;;;;5090725;28;19920;-75
2022/04/10 14:28:49;;;;;;;;;;;18.20;55.90;;;;;;5089186;28;19920;-74